createdAt,value
2023-05-06T00:00:46.240Z,97704.13
2023-05-06T00:03:13.839Z,97707.47
2023-05-06T00:05:43.391Z,97704.97
2023-05-06T00:08:11.034Z,97701.66
2023-05-06T00:10:38.543Z,97706.28
2023-05-06T00:13:06.203Z,97690.13
2023-05-06T00:15:33.850Z,97690.00
2023-05-06T00:18:01.576Z,97697.56
2023-05-06T00:20:29.605Z,97690.69
2023-05-06T00:22:59.151Z,97680.00
2023-05-06T00:25:26.701Z,97682.22
2023-05-06T00:27:54.427Z,97681.63
2023-05-06T00:30:21.815Z,97687.53
2023-05-06T00:32:49.541Z,97685.88
2023-05-06T00:35:17.101Z,97694.91
2023-05-06T00:37:46.566Z,97692.63
2023-05-06T00:40:15.635Z,97697.38
2023-05-06T00:42:43.455Z,97694.66
2023-05-06T00:45:11.938Z,97704.91
2023-05-06T00:47:40.515Z,97701.91
2023-05-06T00:50:08.956Z,97692.22
2023-05-06T00:52:36.381Z,97691.13
2023-05-06T00:55:04.347Z,97695.31
2023-05-06T00:57:33.324Z,97682.94
2023-05-06T01:00:00.769Z,97684.63
2023-05-06T01:02:39.654Z,97683.56
2023-05-06T01:05:14.326Z,97680.69
2023-05-06T01:07:48.834Z,97680.91
2023-05-06T01:10:24.420Z,97677.13
2023-05-06T01:13:05.038Z,97680.91
2023-05-06T01:15:36.634Z,97677.44
2023-05-06T01:18:10.866Z,97680.03
2023-05-06T01:20:41.974Z,97684.25
2023-05-06T01:23:13.399Z,97684.13
2023-05-06T01:25:41.463Z,97679.72
2023-05-06T01:28:11.427Z,97683.28
2023-05-06T01:30:45.502Z,97684.94
2023-05-06T01:33:21.530Z,97687.69
2023-05-06T01:35:56.150Z,97684.34
2023-05-06T01:38:34.876Z,97686.00
2023-05-06T01:41:03.211Z,97680.69
2023-05-06T01:43:40.421Z,97676.06
2023-05-06T01:46:11.960Z,97680.25
2023-05-06T01:48:40.956Z,97688.03
2023-05-06T01:51:08.646Z,97688.88
2023-05-06T01:53:37.579Z,97693.13
2023-05-06T01:56:05.869Z,97700.84
2023-05-06T01:58:33.455Z,97700.41
2023-05-06T02:01:00.892Z,97696.19
2023-05-06T02:03:28.714Z,97696.00
2023-05-06T02:05:56.891Z,97693.06
2023-05-06T02:08:26.525Z,97697.00
2023-05-06T02:10:55.516Z,97690.50
2023-05-06T02:13:23.613Z,97695.72
2023-05-06T02:15:52.768Z,97696.31
2023-05-06T02:18:22.306Z,97696.19
2023-05-06T02:20:50.898Z,97698.06
2023-05-06T02:23:19.252Z,97697.44
2023-05-06T02:25:46.935Z,97694.94
2023-05-06T02:28:15.751Z,97697.44
2023-05-06T02:30:43.512Z,97696.22
2023-05-06T02:33:11.118Z,97685.78
2023-05-06T02:35:38.609Z,97683.75
2023-05-06T02:38:06.260Z,97688.81
2023-05-06T02:40:35.251Z,97679.91
2023-05-06T02:43:02.763Z,97672.41
2023-05-06T02:45:31.893Z,97677.31
2023-05-06T02:47:59.932Z,97681.56
2023-05-06T02:50:27.450Z,97685.00
2023-05-06T02:52:54.887Z,97678.69
2023-05-06T02:55:22.638Z,97686.88
2023-05-06T02:57:50.142Z,97692.34
2023-05-06T03:00:18.370Z,97679.28
2023-05-06T03:02:49.212Z,97684.75
2023-05-06T03:05:16.863Z,97675.06
2023-05-06T03:07:44.315Z,97681.34
2023-05-06T03:10:11.842Z,97682.56
2023-05-06T03:12:39.843Z,97685.44
2023-05-06T03:15:08.841Z,97675.81
2023-05-06T03:17:37.869Z,97675.81
2023-05-06T03:20:09.928Z,97680.59
2023-05-06T03:22:42.236Z,97675.50
2023-05-06T03:25:10.228Z,97680.97
2023-05-06T03:27:40.032Z,97679.91
2023-05-06T03:30:15.701Z,97677.75
2023-05-06T03:32:44.671Z,97682.78
2023-05-06T03:35:17.753Z,97677.91
2023-05-06T03:37:49.269Z,97678.50
2023-05-06T03:40:17.719Z,97681.59
2023-05-06T03:42:46.026Z,97669.50
2023-05-06T03:45:13.920Z,97677.59
2023-05-06T03:47:41.947Z,97684.34
2023-05-06T03:50:11.276Z,97679.72
2023-05-06T03:52:41.867Z,97684.94
2023-05-06T03:55:10.622Z,97676.53
2023-05-06T03:57:39.881Z,97676.75
2023-05-06T04:00:09.158Z,97671.53
2023-05-06T04:02:43.822Z,97667.59
2023-05-06T04:05:18.809Z,97677.91
2023-05-06T04:07:48.410Z,97672.91
2023-05-06T04:10:16.111Z,97673.75
2023-05-06T04:12:48.042Z,97675.66
2023-05-06T04:15:21.315Z,97677.19
2023-05-06T04:17:49.292Z,97680.97
2023-05-06T04:20:17.000Z,97681.19
2023-05-06T04:22:44.657Z,97683.31
2023-05-06T04:25:13.800Z,97689.13
2023-05-06T04:27:41.946Z,97688.66
2023-05-06T04:30:10.647Z,97686.63
2023-05-06T04:32:39.219Z,97690.81
2023-05-06T04:35:08.789Z,97691.41
2023-05-06T04:37:38.449Z,97686.78
2023-05-06T04:40:22.796Z,97680.75
2023-05-06T04:42:52.546Z,97679.91
2023-05-06T04:45:24.498Z,97688.66
2023-05-06T04:47:53.345Z,97694.03
2023-05-06T04:50:20.976Z,97699.66
2023-05-06T04:52:48.955Z,97699.22
2023-05-06T04:55:18.936Z,97700.84
2023-05-06T04:57:52.295Z,97703.97
2023-05-06T05:00:20.320Z,97699.97
2023-05-06T05:02:48.513Z,97699.75
2023-05-06T05:05:18.115Z,97707.53
2023-05-06T05:07:48.581Z,97710.03
2023-05-06T05:10:16.467Z,97713.00
2023-05-06T05:12:44.422Z,97706.91
2023-05-06T05:15:13.500Z,97711.50
2023-05-06T05:17:41.948Z,97717.94
2023-05-06T05:20:10.321Z,97719.75
2023-05-06T05:22:38.060Z,97718.91
2023-05-06T05:25:08.185Z,97717.22
2023-05-06T05:27:36.470Z,97717.72
2023-05-06T05:30:04.726Z,97708.69
2023-05-06T05:32:36.988Z,97726.19
2023-05-06T05:35:05.784Z,97725.69
2023-05-06T05:37:34.299Z,97730.00
2023-05-06T05:40:02.269Z,97735.97
2023-05-06T05:42:33.706Z,97734.81
2023-05-06T05:45:06.576Z,97743.50
2023-05-06T05:47:34.311Z,97741.53
2023-05-06T05:50:03.978Z,97738.09
2023-05-06T05:52:32.054Z,97739.88
2023-05-06T05:55:00.548Z,97742.84
2023-05-06T05:57:28.020Z,97742.25
2023-05-06T05:59:55.655Z,97739.88
2023-05-06T06:02:23.433Z,97735.50
2023-05-06T06:04:51.299Z,97744.44
2023-05-06T06:07:20.439Z,97749.66
2023-05-06T06:09:48.872Z,97746.47
2023-05-06T06:12:18.084Z,97750.25
2023-05-06T06:14:48.051Z,97747.28
2023-05-06T06:17:18.728Z,97753.09
2023-05-06T06:19:46.994Z,97749.91
2023-05-06T06:22:14.510Z,97753.63
2023-05-06T06:24:43.729Z,97760.53
2023-05-06T06:27:12.036Z,97753.25
2023-05-06T06:29:39.624Z,97762.66
2023-05-06T06:32:08.640Z,97757.66
2023-05-06T06:34:36.496Z,97759.56
2023-05-06T06:37:04.694Z,97761.88
2023-05-06T06:39:33.147Z,97761.38
2023-05-06T06:42:06.822Z,97764.94
2023-05-06T06:44:49.690Z,97766.19
2023-05-06T06:47:17.129Z,97756.34
2023-05-06T06:49:44.502Z,97769.41
2023-05-06T06:52:11.950Z,97767.88
2023-05-06T06:54:39.384Z,97763.59
2023-05-06T06:57:08.213Z,97772.34
2023-05-06T06:59:35.674Z,97771.03
2023-05-06T07:02:03.341Z,97774.53
2023-05-06T07:04:30.990Z,97776.59
2023-05-06T07:06:58.535Z,97778.16
2023-05-06T07:09:26.281Z,97784.28
2023-05-06T07:11:53.769Z,97782.22
2023-05-06T07:14:22.574Z,97794.75
2023-05-06T07:16:51.568Z,97787.44
2023-05-06T07:19:19.209Z,97779.88
2023-05-06T07:21:46.652Z,97788.56
2023-05-06T07:24:14.396Z,97784.81
2023-05-06T07:26:41.929Z,97786.13
2023-05-06T07:29:09.461Z,97782.75
2023-05-06T07:31:38.603Z,97787.88
2023-05-06T07:34:06.181Z,97780.59
2023-05-06T07:36:40.398Z,97778.91
2023-05-06T07:39:08.136Z,97778.47
2023-05-06T07:41:35.600Z,97787.94
2023-05-06T07:44:03.328Z,97786.53
2023-05-06T07:46:32.898Z,97789.38
2023-05-06T07:49:01.782Z,97780.66
2023-05-06T07:51:29.605Z,97788.06
2023-05-06T07:53:57.163Z,97782.56
2023-05-06T07:56:24.606Z,97795.69
2023-05-06T07:58:52.103Z,97798.22
2023-05-06T08:01:19.621Z,97798.34
2023-05-06T08:03:47.505Z,97795.56
2023-05-06T08:06:16.654Z,97792.16
2023-05-06T08:08:44.142Z,97798.91
2023-05-06T08:11:11.626Z,97803.00
2023-05-06T08:13:39.132Z,97802.47
2023-05-06T08:16:07.243Z,97803.19
2023-05-06T08:18:34.790Z,97806.00
2023-05-06T08:21:02.607Z,97799.47
2023-05-06T08:23:32.406Z,97800.69
2023-05-06T08:25:59.861Z,97802.19
2023-05-06T08:28:29.169Z,97794.81
2023-05-06T08:30:56.738Z,97809.16
2023-05-06T08:33:24.379Z,97799.06
2023-05-06T08:35:52.809Z,97799.16
2023-05-06T08:38:20.298Z,97797.59
2023-05-06T08:40:49.577Z,97795.03
2023-05-06T08:43:21.231Z,97796.19
2023-05-06T08:45:49.783Z,97793.72
2023-05-06T08:48:18.020Z,97792.59
2023-05-06T08:50:47.722Z,97799.78
2023-05-06T08:53:17.089Z,97800.50
2023-05-06T08:55:45.441Z,97803.78
2023-05-06T08:58:16.844Z,97806.25
2023-05-06T09:00:46.198Z,97802.19
2023-05-06T09:03:14.096Z,97797.09
2023-05-06T09:05:41.936Z,97809.38
2023-05-06T09:08:09.592Z,97811.66
2023-05-06T09:10:42.898Z,97799.78
2023-05-06T09:13:12.092Z,97794.47
2023-05-06T09:15:42.087Z,97797.44
2023-05-06T09:18:10.766Z,97804.06
2023-05-06T09:20:41.968Z,97796.03
2023-05-06T09:23:11.091Z,97802.19
2023-05-06T09:25:39.359Z,97792.81
2023-05-06T09:28:08.976Z,97797.88
2023-05-06T09:30:39.050Z,97792.81
2023-05-06T09:33:09.022Z,97802.38
2023-05-06T09:35:38.561Z,97795.91
2023-05-06T09:38:07.588Z,97793.53
2023-05-06T09:40:36.064Z,97796.09
2023-05-06T09:43:03.919Z,97792.88
2023-05-06T09:45:31.280Z,97789.53
2023-05-06T09:47:59.220Z,97787.56
2023-05-06T09:50:28.589Z,97776.41
2023-05-06T09:52:57.473Z,97779.22
2023-05-06T09:55:27.117Z,97779.78
2023-05-06T09:57:55.429Z,97776.97
2023-05-06T10:00:28.117Z,97773.19
2023-05-06T10:02:57.217Z,97774.13
2023-05-06T10:05:26.221Z,97765.53
2023-05-06T10:07:57.224Z,97773.56
2023-05-06T10:10:27.938Z,97770.84
2023-05-06T10:12:55.658Z,97769.66
2023-05-06T10:15:25.951Z,97770.38
2023-05-06T10:17:54.963Z,97755.91
2023-05-06T10:20:24.370Z,97761.22
2023-05-06T10:23:01.786Z,97762.63
2023-05-06T10:25:37.166Z,97750.19
2023-05-06T10:28:08.497Z,97746.63
2023-05-06T10:30:44.962Z,97741.03
2023-05-06T10:33:14.531Z,97743.19
2023-05-06T10:35:47.226Z,97736.72
2023-05-06T10:38:27.978Z,97736.72
2023-05-06T10:40:56.154Z,97729.38
2023-05-06T10:43:25.828Z,97730.03
2023-05-06T10:46:04.178Z,97726.75
2023-05-06T10:48:32.635Z,97721.22
2023-05-06T10:51:27.556Z,97731.69
2023-05-06T10:54:04.486Z,97719.41
2023-05-06T10:56:33.490Z,97720.25
2023-05-06T10:59:08.103Z,97714.28
2023-05-06T11:01:36.498Z,97710.91
2023-05-06T11:04:09.509Z,97707.38
2023-05-06T11:06:40.331Z,97706.78
2023-05-06T11:09:17.765Z,97701.09
2023-05-06T11:12:02.659Z,97701.69
2023-05-06T11:14:32.596Z,97700.44
2023-05-06T11:17:01.527Z,97698.38
2023-05-06T11:19:30.701Z,97693.34
2023-05-06T11:21:59.444Z,97702.88
2023-05-06T11:24:29.521Z,97699.38
2023-05-06T11:26:58.454Z,97693.63
2023-05-06T11:29:27.122Z,97695.59
2023-05-06T11:31:55.010Z,97693.25
2023-05-06T11:34:23.477Z,97683.50
2023-05-06T11:37:10.215Z,97697.97
2023-05-06T11:39:40.811Z,97685.22
2023-05-06T11:42:09.064Z,97683.06
2023-05-06T11:44:38.640Z,97684.69
2023-05-06T11:47:07.510Z,97685.03
2023-05-06T11:49:37.012Z,97682.03
2023-05-06T11:52:05.254Z,97672.59
2023-05-06T11:54:35.308Z,97684.00
2023-05-06T11:57:04.288Z,97679.00
2023-05-06T11:59:33.350Z,97675.94
2023-05-06T12:02:02.866Z,97677.44
2023-05-06T12:04:37.704Z,97683.22
2023-05-06T12:07:06.391Z,97677.56
2023-05-06T12:09:34.617Z,97673.53
2023-05-06T12:12:04.815Z,97670.66
2023-05-06T12:14:32.677Z,97677.13
2023-05-06T12:17:00.232Z,97667.59
2023-05-06T12:19:28.741Z,97672.69
2023-05-06T12:21:57.233Z,97667.38
2023-05-06T12:24:30.928Z,97670.41
2023-05-06T12:26:58.837Z,97660.19
2023-05-06T12:29:27.669Z,97668.56
2023-05-06T12:32:08.311Z,97663.56
2023-05-06T12:34:38.239Z,97656.41
2023-05-06T12:37:06.646Z,97649.59
2023-05-06T12:39:35.756Z,97653.84
2023-05-06T12:42:03.390Z,97652.41
2023-05-06T12:44:37.763Z,97659.63
2023-05-06T12:47:07.450Z,97654.22
2023-05-06T12:49:47.429Z,97653.47
2023-05-06T12:52:15.974Z,97654.19
2023-05-06T12:54:43.978Z,97648.31
2023-05-06T12:57:11.952Z,97646.75
2023-05-06T12:59:41.061Z,97645.38
2023-05-06T13:02:08.619Z,97652.47
2023-05-06T13:04:35.929Z,97640.28
2023-05-06T13:07:03.458Z,97648.56
2023-05-06T13:09:31.029Z,97641.69
2023-05-06T13:11:59.231Z,97646.06
2023-05-06T13:14:26.692Z,97644.94
2023-05-06T13:16:56.041Z,97633.09
2023-05-06T13:19:32.173Z,97628.63
2023-05-06T13:22:01.320Z,97626.72
2023-05-06T13:24:29.248Z,97623.78
2023-05-06T13:26:57.419Z,97616.56
2023-05-06T13:29:25.502Z,97615.28
2023-05-06T13:31:53.032Z,97611.31
2023-05-06T13:34:21.653Z,97613.22
2023-05-06T13:36:49.732Z,97606.34
2023-05-06T13:39:17.156Z,97598.81
2023-05-06T13:41:46.399Z,97598.69
2023-05-06T13:44:16.082Z,97597.63
2023-05-06T13:46:46.101Z,97587.19
2023-05-06T13:49:14.256Z,97576.91
2023-05-06T13:51:43.010Z,97579.06
2023-05-06T13:54:10.459Z,97590.75
2023-05-06T13:56:37.814Z,97572.47
2023-05-06T13:59:05.308Z,97572.00
2023-05-06T14:01:33.176Z,97569.41
2023-05-06T14:04:00.692Z,97567.34
2023-05-06T14:06:28.615Z,97567.16
2023-05-06T14:08:57.551Z,97563.19
2023-05-06T14:11:25.049Z,97558.81
2023-05-06T14:13:52.393Z,97566.91
2023-05-06T14:16:20.599Z,97553.69
2023-05-06T14:18:49.337Z,97557.47
2023-05-06T14:21:16.818Z,97560.13
2023-05-06T14:23:44.061Z,97558.97
2023-05-06T14:26:14.137Z,97549.94
2023-05-06T14:28:41.706Z,97550.19
2023-05-06T14:31:09.226Z,97547.56
2023-05-06T14:33:37.643Z,97546.44
2023-05-06T14:36:06.087Z,97541.97
2023-05-06T14:38:33.717Z,97546.19
2023-05-06T14:41:01.069Z,97540.03
2023-05-06T14:43:29.993Z,97525.56
2023-05-06T14:45:57.472Z,97532.38
2023-05-06T14:48:25.446Z,97531.06
2023-05-06T14:50:53.526Z,97537.84
2023-05-06T14:53:21.045Z,97529.63
2023-05-06T14:55:48.916Z,97535.00
2023-05-06T14:58:16.582Z,97530.13
2023-05-06T15:00:45.186Z,97530.91
2023-05-06T15:03:12.645Z,97520.84
2023-05-06T15:05:40.117Z,97525.34
2023-05-06T15:08:07.567Z,97516.50
2023-05-06T15:10:35.028Z,97536.84
2023-05-06T15:13:02.599Z,97523.84
2023-05-06T15:15:30.357Z,97517.28
2023-05-06T15:17:59.224Z,97518.59
2023-05-06T15:20:26.713Z,97514.97
2023-05-06T15:22:54.266Z,97516.81
2023-05-06T15:25:34.449Z,97518.75
2023-05-06T15:28:02.878Z,97515.66
2023-05-06T15:30:30.771Z,97521.38
2023-05-06T15:33:00.943Z,97511.31
2023-05-06T15:35:28.646Z,97508.63
2023-05-06T15:37:59.094Z,97518.97
2023-05-06T15:40:27.019Z,97525.25
2023-05-06T15:42:54.630Z,97531.13
2023-05-06T15:45:22.506Z,97523.59
2023-05-06T15:47:50.166Z,97521.53
2023-05-06T15:50:31.839Z,97527.28
2023-05-06T15:53:01.182Z,97531.50
2023-05-06T15:55:28.986Z,97525.75
2023-05-06T15:57:59.159Z,97520.72
2023-05-06T16:00:28.139Z,97513.59
2023-05-06T16:02:55.505Z,97519.72
2023-05-06T16:05:24.692Z,97522.22
2023-05-06T16:07:52.162Z,97522.50
2023-05-06T16:10:20.012Z,97524.50
2023-05-06T16:12:47.507Z,97524.69
2023-05-06T16:15:15.494Z,97524.97
2023-05-06T16:17:43.067Z,97515.19
2023-05-06T16:20:11.488Z,97525.06
2023-05-06T16:22:41.081Z,97529.50
2023-05-06T16:25:08.893Z,97527.19
2023-05-06T16:27:37.020Z,97515.84
2023-05-06T16:30:05.484Z,97518.41
2023-05-06T16:32:33.561Z,97519.44
2023-05-06T16:35:01.167Z,97523.00
2023-05-06T16:37:29.128Z,97522.22
2023-05-06T16:39:58.096Z,97517.75
2023-05-06T16:42:25.715Z,97514.28
2023-05-06T16:44:53.443Z,97515.63
2023-05-06T16:47:23.538Z,97512.91
2023-05-06T16:49:51.465Z,97513.63
2023-05-06T16:52:19.382Z,97507.00
2023-05-06T16:54:46.866Z,97511.38
2023-05-06T16:57:15.938Z,97504.25
2023-05-06T16:59:43.723Z,97507.34
2023-05-06T17:02:11.575Z,97509.44
2023-05-06T17:04:38.917Z,97503.94
2023-05-06T17:07:06.564Z,97515.94
2023-05-06T17:09:34.353Z,97498.81
2023-05-06T17:12:02.376Z,97499.00
2023-05-06T17:14:31.489Z,97503.22
2023-05-06T17:17:02.110Z,97499.84
2023-05-06T17:19:29.768Z,97497.84
2023-05-06T17:21:58.027Z,97494.97
2023-05-06T17:24:25.661Z,97491.09
2023-05-06T17:26:53.220Z,97491.19
2023-05-06T17:29:22.066Z,97484.59
2023-05-06T17:31:51.198Z,97495.28
2023-05-06T17:34:18.889Z,97488.94
2023-05-06T17:36:46.324Z,97478.78
2023-05-06T17:39:13.873Z,97485.00
2023-05-06T17:41:41.601Z,97484.78
2023-05-06T17:44:09.473Z,97481.97
2023-05-06T17:46:37.024Z,97492.66
2023-05-06T17:49:06.450Z,97485.53
2023-05-06T17:51:33.924Z,97481.78
2023-05-06T17:54:01.401Z,97480.78
2023-05-06T17:56:28.942Z,97484.72
2023-05-06T17:59:01.183Z,97479.72
2023-05-06T18:01:29.121Z,97484.72
2023-05-06T18:03:57.266Z,97477.34
2023-05-06T18:06:27.075Z,97479.56
2023-05-06T18:08:54.525Z,97474.97
2023-05-06T18:11:22.118Z,97479.94
2023-05-06T18:13:49.816Z,97480.78
2023-05-06T18:16:17.537Z,97486.03
2023-05-06T18:18:45.152Z,97479.69
2023-05-06T18:21:12.608Z,97486.84
2023-05-06T18:23:41.528Z,97491.00
2023-05-06T18:26:09.323Z,97491.25
2023-05-06T18:28:37.997Z,97489.84
2023-05-06T18:31:06.770Z,97494.28
2023-05-06T18:33:35.590Z,97500.03
2023-05-06T18:36:03.698Z,97499.22
2023-05-06T18:38:31.632Z,97501.97
2023-05-06T18:41:01.599Z,97501.94
2023-05-06T18:43:30.972Z,97514.59
2023-05-06T18:45:58.583Z,97507.09
2023-05-06T18:48:26.269Z,97516.72
2023-05-06T18:50:54.397Z,97516.66
2023-05-06T18:53:22.198Z,97531.47
2023-05-06T18:55:49.822Z,97527.00
2023-05-06T18:58:19.181Z,97534.09
2023-05-06T19:00:46.822Z,97535.19
2023-05-06T19:03:14.440Z,97540.59
2023-05-06T19:05:42.049Z,97540.81
2023-05-06T19:08:10.278Z,97546.84
2023-05-06T19:10:37.711Z,97545.78
2023-05-06T19:13:07.586Z,97558.00
2023-05-06T19:15:36.547Z,97555.63
2023-05-06T19:18:04.927Z,97546.47
2023-05-06T19:20:33.043Z,97558.22
2023-05-06T19:23:03.540Z,97556.22
2023-05-06T19:25:31.313Z,97563.56
2023-05-06T19:27:58.720Z,97555.81
2023-05-06T19:30:28.306Z,97559.91
2023-05-06T19:32:58.278Z,97562.09
2023-05-06T19:35:26.401Z,97555.16
2023-05-06T19:37:53.841Z,97564.41
2023-05-06T19:40:22.045Z,97563.81
2023-05-06T19:42:49.593Z,97559.63
2023-05-06T19:45:18.995Z,97563.63
2023-05-06T19:47:47.096Z,97558.66
2023-05-06T19:50:16.093Z,97563.47
2023-05-06T19:52:43.568Z,97569.41
2023-05-06T19:55:11.414Z,97568.22
2023-05-06T19:57:39.195Z,97568.16
2023-05-06T20:00:09.994Z,97572.53
2023-05-06T20:02:38.599Z,97566.97
2023-05-06T20:05:06.357Z,97566.41
2023-05-06T20:07:35.565Z,97568.53
2023-05-06T20:10:03.253Z,97559.91
2023-05-06T20:12:30.714Z,97555.88
2023-05-06T20:14:58.314Z,97560.28
2023-05-06T20:17:25.945Z,97565.41
2023-05-06T20:19:57.211Z,97565.88
2023-05-06T20:22:25.097Z,97556.75
2023-05-06T20:25:07.864Z,97553.28
2023-05-06T20:27:35.897Z,97561.44
2023-05-06T20:30:04.328Z,97561.91
2023-05-06T20:32:32.977Z,97562.31
2023-05-06T20:35:00.520Z,97561.25
2023-05-06T20:37:29.104Z,97566.06
2023-05-06T20:39:58.417Z,97558.53
2023-05-06T20:42:26.245Z,97557.84
2023-05-06T20:44:54.148Z,97567.91
2023-05-06T20:47:21.793Z,97552.13
2023-05-06T20:49:49.289Z,97541.22
2023-05-06T20:52:16.699Z,97552.78
2023-05-06T20:54:45.431Z,97544.72
2023-05-06T20:57:15.712Z,97551.78
2023-05-06T20:59:43.557Z,97548.03
2023-05-06T21:02:11.488Z,97555.16
2023-05-06T21:04:39.176Z,97557.72
2023-05-06T21:07:06.672Z,97553.09
2023-05-06T21:09:34.534Z,97557.63
2023-05-06T21:12:02.143Z,97548.13
2023-05-06T21:14:31.329Z,97550.78
2023-05-06T21:16:58.765Z,97553.44
2023-05-06T21:19:26.275Z,97553.34
2023-05-06T21:21:53.913Z,97550.00
2023-05-06T21:24:21.377Z,97546.94
2023-05-06T21:26:49.001Z,97555.03
2023-05-06T21:29:16.473Z,97560.31
2023-05-06T21:31:45.343Z,97561.63
2023-05-06T21:34:12.935Z,97565.22
2023-05-06T21:36:40.321Z,97560.69
2023-05-06T21:39:10.804Z,97558.72
2023-05-06T21:41:39.242Z,97557.03
2023-05-06T21:44:08.599Z,97555.28
2023-05-06T21:46:37.705Z,97549.69
2023-05-06T21:49:06.867Z,97543.72
2023-05-06T21:51:35.362Z,97553.38
2023-05-06T21:54:03.360Z,97551.72
2023-05-06T21:56:31.194Z,97546.47
2023-05-06T21:58:58.554Z,97554.94
2023-05-06T22:01:26.270Z,97553.38
2023-05-06T22:03:54.238Z,97550.06
2023-05-06T22:06:23.295Z,97548.03
2023-05-06T22:08:51.454Z,97546.63
2023-05-06T22:11:19.141Z,97540.56
2023-05-06T22:13:46.886Z,97537.50
2023-05-06T22:16:14.333Z,97547.81
2023-05-06T22:18:42.606Z,97551.03
2023-05-06T22:21:10.071Z,97551.97
2023-05-06T22:23:40.633Z,97546.97
2023-05-06T22:26:08.207Z,97556.47
2023-05-06T22:28:35.875Z,97553.41
2023-05-06T22:31:03.432Z,97543.44
2023-05-06T22:33:30.876Z,97545.06
2023-05-06T22:35:58.617Z,97541.53
2023-05-06T22:38:26.090Z,97539.25
2023-05-06T22:40:54.852Z,97546.38
2023-05-06T22:43:22.403Z,97545.66
2023-05-06T22:45:49.903Z,97547.56
2023-05-06T22:48:17.384Z,97544.47
2023-05-06T22:50:46.617Z,97546.97
2023-05-06T22:53:15.704Z,97536.28
2023-05-06T22:55:43.613Z,97536.50
2023-05-06T22:58:12.557Z,97537.94
2023-05-06T23:00:41.320Z,97532.50
2023-05-06T23:03:09.004Z,97535.44
2023-05-06T23:05:36.460Z,97538.41
2023-05-06T23:08:04.133Z,97531.75
2023-05-06T23:10:31.859Z,97531.19
2023-05-06T23:13:00.679Z,97536.25
2023-05-06T23:15:29.712Z,97534.84
2023-05-06T23:17:57.205Z,97539.69
2023-05-06T23:20:24.702Z,97536.84
2023-05-06T23:22:52.304Z,97525.63
2023-05-06T23:25:20.206Z,97530.50
2023-05-06T23:27:47.687Z,97531.41
2023-05-06T23:30:15.670Z,97525.59
2023-05-06T23:32:44.662Z,97525.84
2023-05-06T23:35:12.599Z,97516.25
2023-05-06T23:37:40.639Z,97524.50
2023-05-06T23:40:08.645Z,97532.91
2023-05-06T23:42:36.501Z,97535.91
2023-05-06T23:45:04.585Z,97530.59
2023-05-06T23:47:32.601Z,97536.69
2023-05-06T23:50:01.527Z,97524.38
2023-05-06T23:52:29.062Z,97532.78
2023-05-06T23:54:56.524Z,97525.09
2023-05-06T23:57:24.040Z,97533.00
2023-05-06T23:59:51.506Z,97525.66
